sensor_id;sensor_type;location;lat;lon;timestamp;temperature;humidity
40996;DHT22;26723;57.478;12.066;2023-07-13T00:00:15;15.00;99.90
40996;DHT22;26723;57.478;12.066;2023-07-13T00:03:23;15.00;99.90
40996;DHT22;26723;57.478;12.066;2023-07-13T00:06:32;15.00;99.90
40996;DHT22;26723;57.478;12.066;2023-07-13T00:09:42;14.90;99.90
40996;DHT22;26723;57.478;12.066;2023-07-13T00:12:52;14.80;99.90
40996;DHT22;26723;57.478;12.066;2023-07-13T00:16:02;14.70;99.90
40996;DHT22;26723;57.478;12.066;2023-07-13T00:19:11;14.70;99.90
40996;DHT22;26723;57.478;12.066;2023-07-13T00:22:20;14.60;99.90
40996;DHT22;26723;57.478;12.066;2023-07-13T00:25:33;14.50;99.90
40996;DHT22;26723;57.478;12.066;2023-07-13T00:28:43;14.40;99.90
40996;DHT22;26723;57.478;12.066;2023-07-13T00:31:52;14.40;99.90
40996;DHT22;26723;57.478;12.066;2023-07-13T00:35:02;14.50;99.90
40996;DHT22;26723;57.478;12.066;2023-07-13T00:38:12;14.60;99.90
40996;DHT22;26723;57.478;12.066;2023-07-13T00:41:20;14.60;99.90
40996;DHT22;26723;57.478;12.066;2023-07-13T00:44:30;14.70;99.90
40996;DHT22;26723;57.478;12.066;2023-07-13T00:47:39;14.70;99.90
40996;DHT22;26723;57.478;12.066;2023-07-13T00:50:53;14.70;99.90
40996;DHT22;26723;57.478;12.066;2023-07-13T00:54:07;14.70;99.90
40996;DHT22;26723;57.478;12.066;2023-07-13T00:57:19;14.80;99.90
40996;DHT22;26723;57.478;12.066;2023-07-13T01:00:30;14.70;99.90
40996;DHT22;26723;57.478;12.066;2023-07-13T01:03:38;14.70;99.90
40996;DHT22;26723;57.478;12.066;2023-07-13T01:06:51;14.80;99.90
40996;DHT22;26723;57.478;12.066;2023-07-13T01:10:00;14.80;99.90
40996;DHT22;26723;57.478;12.066;2023-07-13T01:13:10;14.80;99.90
40996;DHT22;26723;57.478;12.066;2023-07-13T01:16:24;14.80;99.90
40996;DHT22;26723;57.478;12.066;2023-07-13T01:19:36;14.80;99.90
40996;DHT22;26723;57.478;12.066;2023-07-13T01:22:48;14.80;99.90
40996;DHT22;26723;57.478;12.066;2023-07-13T01:25:58;14.80;99.90
40996;DHT22;26723;57.478;12.066;2023-07-13T01:29:07;14.90;99.90
40996;DHT22;26723;57.478;12.066;2023-07-13T01:32:20;14.90;99.90
40996;DHT22;26723;57.478;12.066;2023-07-13T01:35:34;14.90;99.90
40996;DHT22;26723;57.478;12.066;2023-07-13T01:38:45;14.90;99.90
40996;DHT22;26723;57.478;12.066;2023-07-13T01:41:54;15.00;99.90
40996;DHT22;26723;57.478;12.066;2023-07-13T01:45:03;15.00;99.90
40996;DHT22;26723;57.478;12.066;2023-07-13T01:48:13;15.00;99.90
40996;DHT22;26723;57.478;12.066;2023-07-13T01:51:22;15.10;99.90
40996;DHT22;26723;57.478;12.066;2023-07-13T01:54:32;15.10;99.90
40996;DHT22;26723;57.478;12.066;2023-07-13T01:57:41;15.20;99.90
40996;DHT22;26723;57.478;12.066;2023-07-13T02:00:51;15.30;99.90
40996;DHT22;26723;57.478;12.066;2023-07-13T02:04:00;15.30;99.90
40996;DHT22;26723;57.478;12.066;2023-07-13T02:07:12;15.30;99.90
40996;DHT22;26723;57.478;12.066;2023-07-13T02:10:23;15.30;99.90
40996;DHT22;26723;57.478;12.066;2023-07-13T02:13:32;15.30;99.90
40996;DHT22;26723;57.478;12.066;2023-07-13T02:16:40;15.30;99.90
40996;DHT22;26723;57.478;12.066;2023-07-13T02:19:49;15.30;99.90
40996;DHT22;26723;57.478;12.066;2023-07-13T02:22:58;15.30;99.90
40996;DHT22;26723;57.478;12.066;2023-07-13T02:26:08;15.30;99.90
40996;DHT22;26723;57.478;12.066;2023-07-13T02:29:17;15.30;99.90
40996;DHT22;26723;57.478;12.066;2023-07-13T02:32:26;15.30;99.90
40996;DHT22;26723;57.478;12.066;2023-07-13T02:35:34;15.30;99.90
40996;DHT22;26723;57.478;12.066;2023-07-13T02:38:44;15.30;99.90
40996;DHT22;26723;57.478;12.066;2023-07-13T02:41:54;15.30;99.90
40996;DHT22;26723;57.478;12.066;2023-07-13T02:45:03;15.30;99.90
40996;DHT22;26723;57.478;12.066;2023-07-13T02:48:14;15.40;99.90
40996;DHT22;26723;57.478;12.066;2023-07-13T02:51:22;15.30;99.90
40996;DHT22;26723;57.478;12.066;2023-07-13T02:54:31;15.40;99.90
40996;DHT22;26723;57.478;12.066;2023-07-13T02:57:41;15.40;99.90
40996;DHT22;26723;57.478;12.066;2023-07-13T03:00:51;15.30;99.90
40996;DHT22;26723;57.478;12.066;2023-07-13T03:04:01;15.40;99.90
40996;DHT22;26723;57.478;12.066;2023-07-13T03:07:13;15.30;99.90
40996;DHT22;26723;57.478;12.066;2023-07-13T03:10:26;15.40;99.90
40996;DHT22;26723;57.478;12.066;2023-07-13T03:13:38;15.40;99.90
40996;DHT22;26723;57.478;12.066;2023-07-13T03:16:46;15.40;99.90
40996;DHT22;26723;57.478;12.066;2023-07-13T03:19:55;15.40;99.90
40996;DHT22;26723;57.478;12.066;2023-07-13T03:23:05;15.40;99.90
40996;DHT22;26723;57.478;12.066;2023-07-13T03:26:17;15.50;99.90
40996;DHT22;26723;57.478;12.066;2023-07-13T03:29:29;15.50;99.90
40996;DHT22;26723;57.478;12.066;2023-07-13T03:32:37;15.50;99.90
40996;DHT22;26723;57.478;12.066;2023-07-13T03:35:46;15.50;99.90
40996;DHT22;26723;57.478;12.066;2023-07-13T03:38:57;15.50;99.90
40996;DHT22;26723;57.478;12.066;2023-07-13T03:42:14;15.60;99.90
40996;DHT22;26723;57.478;12.066;2023-07-13T03:45:24;15.70;99.90
40996;DHT22;26723;57.478;12.066;2023-07-13T03:48:33;15.70;99.90
40996;DHT22;26723;57.478;12.066;2023-07-13T03:51:42;15.80;99.90
40996;DHT22;26723;57.478;12.066;2023-07-13T03:54:50;15.80;99.90
40996;DHT22;26723;57.478;12.066;2023-07-13T03:58:27;15.90;99.90
40996;DHT22;26723;57.478;12.066;2023-07-13T04:01:40;15.80;99.90
40996;DHT22;26723;57.478;12.066;2023-07-13T04:04:49;15.80;99.90
40996;DHT22;26723;57.478;12.066;2023-07-13T04:07:58;15.80;99.90
40996;DHT22;26723;57.478;12.066;2023-07-13T04:11:07;15.90;99.90
40996;DHT22;26723;57.478;12.066;2023-07-13T04:14:17;15.90;99.90
40996;DHT22;26723;57.478;12.066;2023-07-13T04:17:26;15.90;99.90
40996;DHT22;26723;57.478;12.066;2023-07-13T04:20:35;16.00;99.90
40996;DHT22;26723;57.478;12.066;2023-07-13T04:23:44;16.00;99.90
40996;DHT22;26723;57.478;12.066;2023-07-13T04:26:52;16.00;99.90
40996;DHT22;26723;57.478;12.066;2023-07-13T04:30:04;16.00;99.90
40996;DHT22;26723;57.478;12.066;2023-07-13T04:33:13;16.00;99.90
40996;DHT22;26723;57.478;12.066;2023-07-13T04:36:23;16.10;99.90
40996;DHT22;26723;57.478;12.066;2023-07-13T04:39:34;16.10;99.90
40996;DHT22;26723;57.478;12.066;2023-07-13T04:42:43;16.30;99.90
40996;DHT22;26723;57.478;12.066;2023-07-13T04:45:54;16.30;99.90
40996;DHT22;26723;57.478;12.066;2023-07-13T04:49:03;16.50;99.90
40996;DHT22;26723;57.478;12.066;2023-07-13T04:52:13;16.50;99.90
40996;DHT22;26723;57.478;12.066;2023-07-13T04:55:22;16.60;99.90
40996;DHT22;26723;57.478;12.066;2023-07-13T04:58:30;16.70;99.90
40996;DHT22;26723;57.478;12.066;2023-07-13T05:01:42;16.70;99.90
40996;DHT22;26723;57.478;12.066;2023-07-13T05:04:51;16.70;99.90
40996;DHT22;26723;57.478;12.066;2023-07-13T05:07:59;16.70;99.90
40996;DHT22;26723;57.478;12.066;2023-07-13T05:11:09;16.70;99.90
40996;DHT22;26723;57.478;12.066;2023-07-13T05:14:18;16.70;99.90
40996;DHT22;26723;57.478;12.066;2023-07-13T05:17:28;16.90;99.90
40996;DHT22;26723;57.478;12.066;2023-07-13T05:20:36;16.90;99.90
40996;DHT22;26723;57.478;12.066;2023-07-13T05:23:45;17.00;99.90
40996;DHT22;26723;57.478;12.066;2023-07-13T05:26:54;17.00;99.90
40996;DHT22;26723;57.478;12.066;2023-07-13T05:30:04;17.00;99.90
40996;DHT22;26723;57.478;12.066;2023-07-13T05:33:14;17.00;99.90
40996;DHT22;26723;57.478;12.066;2023-07-13T05:36:23;16.90;99.90
40996;DHT22;26723;57.478;12.066;2023-07-13T05:39:32;17.00;99.90
40996;DHT22;26723;57.478;12.066;2023-07-13T05:42:40;17.10;99.90
40996;DHT22;26723;57.478;12.066;2023-07-13T05:45:52;17.20;99.90
40996;DHT22;26723;57.478;12.066;2023-07-13T05:49:04;17.30;99.90
40996;DHT22;26723;57.478;12.066;2023-07-13T05:52:12;17.20;99.90
40996;DHT22;26723;57.478;12.066;2023-07-13T05:55:21;17.10;99.90
40996;DHT22;26723;57.478;12.066;2023-07-13T05:58:30;17.10;99.90
40996;DHT22;26723;57.478;12.066;2023-07-13T06:01:39;17.10;99.90
40996;DHT22;26723;57.478;12.066;2023-07-13T06:04:49;17.10;99.90
40996;DHT22;26723;57.478;12.066;2023-07-13T06:07:59;17.10;99.90
40996;DHT22;26723;57.478;12.066;2023-07-13T06:11:12;17.20;99.90
40996;DHT22;26723;57.478;12.066;2023-07-13T06:14:22;17.20;99.90
40996;DHT22;26723;57.478;12.066;2023-07-13T06:17:31;17.10;99.90
40996;DHT22;26723;57.478;12.066;2023-07-13T06:20:41;17.10;99.90
40996;DHT22;26723;57.478;12.066;2023-07-13T06:23:50;17.10;99.90
40996;DHT22;26723;57.478;12.066;2023-07-13T06:26:59;17.10;99.90
40996;DHT22;26723;57.478;12.066;2023-07-13T06:30:09;17.10;99.90
40996;DHT22;26723;57.478;12.066;2023-07-13T06:33:18;17.10;99.90
40996;DHT22;26723;57.478;12.066;2023-07-13T06:36:28;17.10;99.90
40996;DHT22;26723;57.478;12.066;2023-07-13T06:39:37;17.10;99.90
40996;DHT22;26723;57.478;12.066;2023-07-13T06:42:45;17.10;99.90
40996;DHT22;26723;57.478;12.066;2023-07-13T06:45:55;17.00;99.90
40996;DHT22;26723;57.478;12.066;2023-07-13T06:49:04;17.00;99.90
40996;DHT22;26723;57.478;12.066;2023-07-13T06:52:14;17.10;99.90
40996;DHT22;26723;57.478;12.066;2023-07-13T06:55:23;17.20;99.90
40996;DHT22;26723;57.478;12.066;2023-07-13T06:58:33;17.40;99.90
40996;DHT22;26723;57.478;12.066;2023-07-13T07:01:42;17.80;99.90
40996;DHT22;26723;57.478;12.066;2023-07-13T07:04:51;18.20;99.90
40996;DHT22;26723;57.478;12.066;2023-07-13T07:08:03;18.60;99.90
40996;DHT22;26723;57.478;12.066;2023-07-13T07:11:13;19.00;99.90
40996;DHT22;26723;57.478;12.066;2023-07-13T07:14:22;19.60;99.90
40996;DHT22;26723;57.478;12.066;2023-07-13T07:17:31;19.50;99.90
40996;DHT22;26723;57.478;12.066;2023-07-13T07:20:40;19.20;99.90
40996;DHT22;26723;57.478;12.066;2023-07-13T07:23:51;18.70;99.90
40996;DHT22;26723;57.478;12.066;2023-07-13T07:27:00;18.30;99.90
40996;DHT22;26723;57.478;12.066;2023-07-13T07:30:13;18.20;99.90
40996;DHT22;26723;57.478;12.066;2023-07-13T07:33:27;17.90;99.90
40996;DHT22;26723;57.478;12.066;2023-07-13T07:36:36;17.70;99.90
40996;DHT22;26723;57.478;12.066;2023-07-13T07:39:50;17.90;99.90
40996;DHT22;26723;57.478;12.066;2023-07-13T07:43:19;18.10;99.90
40996;DHT22;26723;57.478;12.066;2023-07-13T07:46:28;18.80;99.90
40996;DHT22;26723;57.478;12.066;2023-07-13T07:49:37;19.60;99.90
40996;DHT22;26723;57.478;12.066;2023-07-13T07:52:46;19.80;99.90
40996;DHT22;26723;57.478;12.066;2023-07-13T07:55:56;20.00;99.90
40996;DHT22;26723;57.478;12.066;2023-07-13T07:59:24;20.40;99.90
40996;DHT22;26723;57.478;12.066;2023-07-13T08:02:36;20.80;99.90
40996;DHT22;26723;57.478;12.066;2023-07-13T08:05:47;21.60;99.90
40996;DHT22;26723;57.478;12.066;2023-07-13T08:09:00;20.80;99.90
40996;DHT22;26723;57.478;12.066;2023-07-13T08:12:10;20.40;99.90
40996;DHT22;26723;57.478;12.066;2023-07-13T08:15:22;20.40;99.90
40996;DHT22;26723;57.478;12.066;2023-07-13T08:18:30;20.40;99.90
40996;DHT22;26723;57.478;12.066;2023-07-13T08:21:39;20.90;99.90
40996;DHT22;26723;57.478;12.066;2023-07-13T08:24:49;21.20;99.90
40996;DHT22;26723;57.478;12.066;2023-07-13T08:28:05;21.60;99.90
40996;DHT22;26723;57.478;12.066;2023-07-13T08:31:14;22.00;99.90
40996;DHT22;26723;57.478;12.066;2023-07-13T08:34:24;22.40;99.90
40996;DHT22;26723;57.478;12.066;2023-07-13T08:37:33;22.60;99.90
40996;DHT22;26723;57.478;12.066;2023-07-13T08:40:43;22.30;99.90
40996;DHT22;26723;57.478;12.066;2023-07-13T08:43:58;21.90;99.90
40996;DHT22;26723;57.478;12.066;2023-07-13T08:47:07;22.20;99.90
40996;DHT22;26723;57.478;12.066;2023-07-13T08:50:23;22.60;99.90
40996;DHT22;26723;57.478;12.066;2023-07-13T08:53:36;23.50;99.90
40996;DHT22;26723;57.478;12.066;2023-07-13T08:56:47;23.50;99.90
40996;DHT22;26723;57.478;12.066;2023-07-13T09:00:01;24.40;99.90
40996;DHT22;26723;57.478;12.066;2023-07-13T09:03:19;23.80;99.90
40996;DHT22;26723;57.478;12.066;2023-07-13T09:06:31;22.60;99.90
40996;DHT22;26723;57.478;12.066;2023-07-13T09:09:59;22.50;99.90
40996;DHT22;26723;57.478;12.066;2023-07-13T09:13:26;22.70;99.90
40996;DHT22;26723;57.478;12.066;2023-07-13T09:17:17;22.10;99.90
40996;DHT22;26723;57.478;12.066;2023-07-13T09:20:28;21.50;99.90
40996;DHT22;26723;57.478;12.066;2023-07-13T09:23:39;21.10;99.90
40996;DHT22;26723;57.478;12.066;2023-07-13T09:26:48;21.90;99.90
40996;DHT22;26723;57.478;12.066;2023-07-13T09:30:01;21.50;99.90
40996;DHT22;26723;57.478;12.066;2023-07-13T09:33:12;21.30;99.90
40996;DHT22;26723;57.478;12.066;2023-07-13T09:36:24;21.10;99.90
40996;DHT22;26723;57.478;12.066;2023-07-13T09:39:37;21.70;99.90
40996;DHT22;26723;57.478;12.066;2023-07-13T09:42:48;22.30;99.90
40996;DHT22;26723;57.478;12.066;2023-07-13T09:45:57;23.00;99.90
40996;DHT22;26723;57.478;12.066;2023-07-13T09:49:11;23.70;99.90
40996;DHT22;26723;57.478;12.066;2023-07-13T09:52:23;23.90;99.90
40996;DHT22;26723;57.478;12.066;2023-07-13T09:55:36;23.70;99.90
40996;DHT22;26723;57.478;12.066;2023-07-13T09:58:47;24.00;99.90
40996;DHT22;26723;57.478;12.066;2023-07-13T10:01:55;23.50;99.90
40996;DHT22;26723;57.478;12.066;2023-07-13T10:05:10;23.60;99.90
40996;DHT22;26723;57.478;12.066;2023-07-13T10:08:24;23.10;99.90
40996;DHT22;26723;57.478;12.066;2023-07-13T10:11:36;22.50;99.90
40996;DHT22;26723;57.478;12.066;2023-07-13T10:14:46;22.90;99.90
40996;DHT22;26723;57.478;12.066;2023-07-13T10:17:56;23.20;99.90
40996;DHT22;26723;57.478;12.066;2023-07-13T10:21:14;23.10;99.90
40996;DHT22;26723;57.478;12.066;2023-07-13T10:24:27;23.30;99.90
40996;DHT22;26723;57.478;12.066;2023-07-13T10:27:40;22.50;99.90
40996;DHT22;26723;57.478;12.066;2023-07-13T10:30:49;22.60;99.90
40996;DHT22;26723;57.478;12.066;2023-07-13T10:34:00;23.10;99.90
40996;DHT22;26723;57.478;12.066;2023-07-13T10:37:16;22.80;99.90
40996;DHT22;26723;57.478;12.066;2023-07-13T10:40:38;22.90;99.90
40996;DHT22;26723;57.478;12.066;2023-07-13T10:43:51;22.40;99.90
40996;DHT22;26723;57.478;12.066;2023-07-13T10:47:02;22.00;99.90
40996;DHT22;26723;57.478;12.066;2023-07-13T10:50:17;22.00;99.90
40996;DHT22;26723;57.478;12.066;2023-07-13T10:53:30;21.80;99.90
40996;DHT22;26723;57.478;12.066;2023-07-13T10:56:39;21.80;99.90
40996;DHT22;26723;57.478;12.066;2023-07-13T11:00:10;22.20;99.90
40996;DHT22;26723;57.478;12.066;2023-07-13T11:03:22;22.50;99.90
40996;DHT22;26723;57.478;12.066;2023-07-13T11:06:39;22.90;99.90
40996;DHT22;26723;57.478;12.066;2023-07-13T11:09:54;22.60;99.90
40996;DHT22;26723;57.478;12.066;2023-07-13T11:13:37;22.70;99.90
40996;DHT22;26723;57.478;12.066;2023-07-13T11:16:46;22.10;99.90
40996;DHT22;26723;57.478;12.066;2023-07-13T11:23:45;21.90;99.90
40996;DHT22;26723;57.478;12.066;2023-07-13T11:26:57;22.10;99.90
40996;DHT22;26723;57.478;12.066;2023-07-13T11:30:25;22.10;99.90
40996;DHT22;26723;57.478;12.066;2023-07-13T11:33:54;22.30;99.90
40996;DHT22;26723;57.478;12.066;2023-07-13T11:37:12;22.60;99.90
40996;DHT22;26723;57.478;12.066;2023-07-13T11:40:27;22.70;99.90
40996;DHT22;26723;57.478;12.066;2023-07-13T11:43:38;22.70;99.90
40996;DHT22;26723;57.478;12.066;2023-07-13T11:46:49;22.50;99.90
40996;DHT22;26723;57.478;12.066;2023-07-13T11:50:01;22.10;99.90
40996;DHT22;26723;57.478;12.066;2023-07-13T11:53:10;22.20;99.90
40996;DHT22;26723;57.478;12.066;2023-07-13T11:56:22;22.30;99.90
40996;DHT22;26723;57.478;12.066;2023-07-13T11:59:36;22.20;99.90
40996;DHT22;26723;57.478;12.066;2023-07-13T12:02:50;21.90;99.90
40996;DHT22;26723;57.478;12.066;2023-07-13T12:06:01;21.70;99.90
40996;DHT22;26723;57.478;12.066;2023-07-13T12:09:13;21.20;99.90
40996;DHT22;26723;57.478;12.066;2023-07-13T12:12:28;21.30;99.90
40996;DHT22;26723;57.478;12.066;2023-07-13T12:15:40;21.40;99.90
40996;DHT22;26723;57.478;12.066;2023-07-13T12:18:52;21.50;99.90
40996;DHT22;26723;57.478;12.066;2023-07-13T12:22:01;21.70;99.90
40996;DHT22;26723;57.478;12.066;2023-07-13T12:25:14;21.70;99.90
40996;DHT22;26723;57.478;12.066;2023-07-13T12:28:32;21.80;99.90
40996;DHT22;26723;57.478;12.066;2023-07-13T12:31:44;21.70;99.90
40996;DHT22;26723;57.478;12.066;2023-07-13T12:34:54;21.90;99.90
40996;DHT22;26723;57.478;12.066;2023-07-13T12:38:08;21.70;99.90
40996;DHT22;26723;57.478;12.066;2023-07-13T12:41:21;21.60;99.90
40996;DHT22;26723;57.478;12.066;2023-07-13T12:44:31;21.60;99.90
40996;DHT22;26723;57.478;12.066;2023-07-13T12:47:48;21.50;99.90
40996;DHT22;26723;57.478;12.066;2023-07-13T12:51:01;21.50;99.90
40996;DHT22;26723;57.478;12.066;2023-07-13T12:54:15;21.40;99.90
40996;DHT22;26723;57.478;12.066;2023-07-13T12:57:24;21.50;99.90
40996;DHT22;26723;57.478;12.066;2023-07-13T13:00:36;21.20;99.90
40996;DHT22;26723;57.478;12.066;2023-07-13T13:03:50;21.40;99.90
40996;DHT22;26723;57.478;12.066;2023-07-13T13:07:03;21.50;99.90
40996;DHT22;26723;57.478;12.066;2023-07-13T13:10:14;21.60;99.90
40996;DHT22;26723;57.478;12.066;2023-07-13T13:13:23;21.50;99.90
40996;DHT22;26723;57.478;12.066;2023-07-13T13:16:34;21.40;99.90
40996;DHT22;26723;57.478;12.066;2023-07-13T13:19:45;21.10;99.90
40996;DHT22;26723;57.478;12.066;2023-07-13T13:22:54;21.00;99.90
40996;DHT22;26723;57.478;12.066;2023-07-13T13:26:04;21.10;99.90
40996;DHT22;26723;57.478;12.066;2023-07-13T13:29:15;21.10;99.90
40996;DHT22;26723;57.478;12.066;2023-07-13T13:32:26;21.00;99.90
40996;DHT22;26723;57.478;12.066;2023-07-13T13:35:36;21.10;99.90
40996;DHT22;26723;57.478;12.066;2023-07-13T13:38:45;21.20;99.90
40996;DHT22;26723;57.478;12.066;2023-07-13T13:41:54;21.30;99.90
40996;DHT22;26723;57.478;12.066;2023-07-13T13:45:04;21.40;99.90
40996;DHT22;26723;57.478;12.066;2023-07-13T13:48:18;21.40;99.90
40996;DHT22;26723;57.478;12.066;2023-07-13T13:51:28;21.30;99.90
40996;DHT22;26723;57.478;12.066;2023-07-13T13:54:37;21.30;99.90
40996;DHT22;26723;57.478;12.066;2023-07-13T13:57:48;21.40;99.90
40996;DHT22;26723;57.478;12.066;2023-07-13T14:00:57;21.50;99.90
40996;DHT22;26723;57.478;12.066;2023-07-13T14:04:08;21.50;99.90
40996;DHT22;26723;57.478;12.066;2023-07-13T14:07:19;21.50;99.90
40996;DHT22;26723;57.478;12.066;2023-07-13T14:10:28;21.50;99.90
40996;DHT22;26723;57.478;12.066;2023-07-13T14:13:40;21.40;99.90
40996;DHT22;26723;57.478;12.066;2023-07-13T14:16:50;21.50;99.90
40996;DHT22;26723;57.478;12.066;2023-07-13T14:20:01;21.20;99.90
40996;DHT22;26723;57.478;12.066;2023-07-13T14:23:14;21.10;99.90
40996;DHT22;26723;57.478;12.066;2023-07-13T14:26:26;21.30;99.90
40996;DHT22;26723;57.478;12.066;2023-07-13T14:29:35;21.10;99.90
40996;DHT22;26723;57.478;12.066;2023-07-13T14:32:44;21.00;99.90
40996;DHT22;26723;57.478;12.066;2023-07-13T14:35:53;20.90;99.90
40996;DHT22;26723;57.478;12.066;2023-07-13T14:39:12;21.00;99.90
40996;DHT22;26723;57.478;12.066;2023-07-13T14:42:22;21.00;99.90
40996;DHT22;26723;57.478;12.066;2023-07-13T14:45:31;20.90;99.90
40996;DHT22;26723;57.478;12.066;2023-07-13T14:48:40;21.00;99.90
40996;DHT22;26723;57.478;12.066;2023-07-13T14:51:52;21.00;99.90
40996;DHT22;26723;57.478;12.066;2023-07-13T14:55:07;20.90;99.90
40996;DHT22;26723;57.478;12.066;2023-07-13T14:58:17;20.90;99.90
40996;DHT22;26723;57.478;12.066;2023-07-13T15:01:25;20.80;99.90
40996;DHT22;26723;57.478;12.066;2023-07-13T15:04:35;20.70;99.90
40996;DHT22;26723;57.478;12.066;2023-07-13T15:07:44;20.80;99.90
40996;DHT22;26723;57.478;12.066;2023-07-13T15:10:54;20.80;99.90
40996;DHT22;26723;57.478;12.066;2023-07-13T15:14:07;21.00;99.90
40996;DHT22;26723;57.478;12.066;2023-07-13T15:17:24;21.00;99.90
40996;DHT22;26723;57.478;12.066;2023-07-13T15:20:35;21.00;99.90
40996;DHT22;26723;57.478;12.066;2023-07-13T15:23:44;21.00;99.90
40996;DHT22;26723;57.478;12.066;2023-07-13T15:26:55;21.00;99.90
40996;DHT22;26723;57.478;12.066;2023-07-13T15:30:05;20.90;99.90
40996;DHT22;26723;57.478;12.066;2023-07-13T15:33:16;20.90;99.90
40996;DHT22;26723;57.478;12.066;2023-07-13T15:36:26;20.70;99.90
40996;DHT22;26723;57.478;12.066;2023-07-13T15:39:40;20.50;99.90
40996;DHT22;26723;57.478;12.066;2023-07-13T15:42:52;20.50;99.90
40996;DHT22;26723;57.478;12.066;2023-07-13T15:46:00;20.50;99.90
40996;DHT22;26723;57.478;12.066;2023-07-13T15:49:09;20.30;99.90
40996;DHT22;26723;57.478;12.066;2023-07-13T15:52:22;20.30;99.90
40996;DHT22;26723;57.478;12.066;2023-07-13T15:55:32;20.30;99.90
40996;DHT22;26723;57.478;12.066;2023-07-13T15:58:42;20.20;99.90
40996;DHT22;26723;57.478;12.066;2023-07-13T16:01:51;20.30;99.90
40996;DHT22;26723;57.478;12.066;2023-07-13T16:05:00;20.20;99.90
40996;DHT22;26723;57.478;12.066;2023-07-13T16:08:16;20.20;99.90
40996;DHT22;26723;57.478;12.066;2023-07-13T16:11:33;20.10;99.90
40996;DHT22;26723;57.478;12.066;2023-07-13T16:14:43;20.00;99.90
40996;DHT22;26723;57.478;12.066;2023-07-13T16:17:52;19.80;99.90
40996;DHT22;26723;57.478;12.066;2023-07-13T16:21:02;19.90;99.90
40996;DHT22;26723;57.478;12.066;2023-07-13T16:24:16;19.90;99.90
40996;DHT22;26723;57.478;12.066;2023-07-13T16:27:30;20.00;99.90
40996;DHT22;26723;57.478;12.066;2023-07-13T16:30:42;19.90;99.90
40996;DHT22;26723;57.478;12.066;2023-07-13T16:33:54;19.70;99.90
40996;DHT22;26723;57.478;12.066;2023-07-13T16:37:09;19.50;99.90
40996;DHT22;26723;57.478;12.066;2023-07-13T16:40:23;19.40;99.90
40996;DHT22;26723;57.478;12.066;2023-07-13T16:43:32;19.50;99.90
40996;DHT22;26723;57.478;12.066;2023-07-13T16:46:44;19.50;99.90
40996;DHT22;26723;57.478;12.066;2023-07-13T16:49:54;19.60;99.90
40996;DHT22;26723;57.478;12.066;2023-07-13T16:53:14;19.70;99.90
40996;DHT22;26723;57.478;12.066;2023-07-13T16:56:23;19.60;99.90
40996;DHT22;26723;57.478;12.066;2023-07-13T16:59:35;19.60;99.90
40996;DHT22;26723;57.478;12.066;2023-07-13T17:02:45;19.60;99.90
40996;DHT22;26723;57.478;12.066;2023-07-13T17:05:54;19.60;99.90
40996;DHT22;26723;57.478;12.066;2023-07-13T17:09:09;19.60;99.90
40996;DHT22;26723;57.478;12.066;2023-07-13T17:12:20;19.60;99.90
40996;DHT22;26723;57.478;12.066;2023-07-13T17:15:29;19.70;99.90
40996;DHT22;26723;57.478;12.066;2023-07-13T17:18:43;19.70;99.90
40996;DHT22;26723;57.478;12.066;2023-07-13T17:21:52;19.50;99.90
40996;DHT22;26723;57.478;12.066;2023-07-13T17:25:01;19.40;99.90
40996;DHT22;26723;57.478;12.066;2023-07-13T17:28:11;19.40;99.90
40996;DHT22;26723;57.478;12.066;2023-07-13T17:31:23;19.50;99.90
40996;DHT22;26723;57.478;12.066;2023-07-13T17:34:33;19.60;99.90
40996;DHT22;26723;57.478;12.066;2023-07-13T17:37:45;19.60;99.90
40996;DHT22;26723;57.478;12.066;2023-07-13T17:40:54;19.50;99.90
40996;DHT22;26723;57.478;12.066;2023-07-13T17:44:03;19.50;99.90
40996;DHT22;26723;57.478;12.066;2023-07-13T17:47:22;19.50;99.90
40996;DHT22;26723;57.478;12.066;2023-07-13T17:50:34;19.50;99.90
40996;DHT22;26723;57.478;12.066;2023-07-13T17:53:44;19.50;99.90
40996;DHT22;26723;57.478;12.066;2023-07-13T17:56:53;19.30;99.90
40996;DHT22;26723;57.478;12.066;2023-07-13T18:00:02;19.00;99.90
40996;DHT22;26723;57.478;12.066;2023-07-13T18:03:27;19.00;99.90
40996;DHT22;26723;57.478;12.066;2023-07-13T18:06:43;19.00;99.90
40996;DHT22;26723;57.478;12.066;2023-07-13T18:10:00;18.90;99.90
40996;DHT22;26723;57.478;12.066;2023-07-13T18:13:09;18.80;99.90
40996;DHT22;26723;57.478;12.066;2023-07-13T18:16:20;18.70;99.90
40996;DHT22;26723;57.478;12.066;2023-07-13T18:19:35;18.70;99.90
40996;DHT22;26723;57.478;12.066;2023-07-13T18:22:47;18.70;99.90
40996;DHT22;26723;57.478;12.066;2023-07-13T18:25:56;18.60;99.90
40996;DHT22;26723;57.478;12.066;2023-07-13T18:29:05;18.50;99.90
40996;DHT22;26723;57.478;12.066;2023-07-13T18:32:16;18.40;99.90
40996;DHT22;26723;57.478;12.066;2023-07-13T18:35:29;18.30;99.90
40996;DHT22;26723;57.478;12.066;2023-07-13T18:38:42;18.30;99.90
40996;DHT22;26723;57.478;12.066;2023-07-13T18:41:51;18.20;99.90
40996;DHT22;26723;57.478;12.066;2023-07-13T18:45:00;18.20;99.90
40996;DHT22;26723;57.478;12.066;2023-07-13T18:48:13;18.10;99.90
40996;DHT22;26723;57.478;12.066;2023-07-13T18:51:24;18.10;99.90
40996;DHT22;26723;57.478;12.066;2023-07-13T18:54:35;18.00;99.90
40996;DHT22;26723;57.478;12.066;2023-07-13T18:57:43;17.90;99.90
40996;DHT22;26723;57.478;12.066;2023-07-13T19:00:53;17.90;99.90
40996;DHT22;26723;57.478;12.066;2023-07-13T19:04:25;17.90;99.90
40996;DHT22;26723;57.478;12.066;2023-07-13T19:07:35;17.80;99.90
40996;DHT22;26723;57.478;12.066;2023-07-13T19:10:49;17.70;99.90
40996;DHT22;26723;57.478;12.066;2023-07-13T19:13:58;17.80;99.90
40996;DHT22;26723;57.478;12.066;2023-07-13T19:17:09;17.80;99.90
40996;DHT22;26723;57.478;12.066;2023-07-13T19:20:19;17.70;99.90
40996;DHT22;26723;57.478;12.066;2023-07-13T19:23:33;17.70;99.90
40996;DHT22;26723;57.478;12.066;2023-07-13T19:26:45;17.60;99.90
40996;DHT22;26723;57.478;12.066;2023-07-13T19:29:58;17.50;99.90
40996;DHT22;26723;57.478;12.066;2023-07-13T19:33:10;17.40;99.90
40996;DHT22;26723;57.478;12.066;2023-07-13T19:36:24;17.40;99.90
40996;DHT22;26723;57.478;12.066;2023-07-13T19:39:36;17.40;99.90
40996;DHT22;26723;57.478;12.066;2023-07-13T19:42:48;17.30;99.90
40996;DHT22;26723;57.478;12.066;2023-07-13T19:45:57;17.30;99.90
40996;DHT22;26723;57.478;12.066;2023-07-13T19:49:06;17.20;99.90
40996;DHT22;26723;57.478;12.066;2023-07-13T19:52:17;17.10;99.90